createdAt,value
2023-05-24T00:01:27.881Z,16.04
2023-05-24T00:04:16.828Z,15.98
2023-05-24T00:07:07.072Z,15.93
2023-05-24T00:09:55.621Z,15.89
2023-05-24T00:12:44.258Z,15.89
2023-05-24T00:15:33.203Z,15.89
2023-05-24T00:18:21.837Z,15.87
2023-05-24T00:21:12.027Z,15.88
2023-05-24T00:24:00.546Z,15.88
2023-05-24T00:26:49.502Z,15.88
2023-05-24T00:29:38.031Z,15.87
2023-05-24T00:32:26.623Z,15.86
2023-05-24T00:35:15.522Z,15.85
2023-05-24T00:38:04.122Z,15.85
2023-05-24T00:40:53.424Z,15.83
2023-05-24T00:43:45.270Z,15.81
2023-05-24T00:46:34.693Z,15.78
2023-05-24T00:49:23.772Z,15.75
2023-05-24T00:52:12.464Z,15.74
2023-05-24T00:55:01.222Z,15.71
2023-05-24T00:57:52.956Z,15.69
2023-05-24T01:00:45.216Z,15.66
2023-05-24T01:03:34.469Z,15.62
2023-05-24T01:06:24.959Z,15.59
2023-05-24T01:09:45.726Z,15.56
2023-05-24T01:12:59.626Z,15.55
2023-05-24T01:16:00.027Z,15.53
2023-05-24T01:18:55.377Z,15.51
2023-05-24T01:21:59.394Z,15.48
2023-05-24T01:25:03.961Z,15.43
2023-05-24T01:27:52.936Z,15.37
2023-05-24T01:30:41.909Z,15.31
2023-05-24T01:33:30.658Z,15.26
2023-05-24T01:36:19.354Z,15.23
2023-05-24T01:39:07.977Z,15.21
2023-05-24T01:42:07.806Z,15.18
2023-05-24T01:45:08.898Z,15.14
2023-05-24T01:48:18.758Z,15.08
2023-05-24T01:51:11.604Z,15.01
2023-05-24T01:54:01.679Z,14.92
2023-05-24T01:56:53.909Z,14.84
2023-05-24T01:59:44.623Z,14.78
2023-05-24T02:02:33.470Z,14.73
2023-05-24T02:05:22.192Z,14.71
2023-05-24T02:08:13.524Z,14.68
2023-05-24T02:11:02.817Z,14.65
2023-05-24T02:13:51.425Z,14.61
2023-05-24T02:16:43.066Z,14.55
2023-05-24T02:19:31.782Z,14.49
2023-05-24T02:22:22.420Z,14.46
2023-05-24T02:25:11.067Z,14.44
2023-05-24T02:27:59.785Z,14.44
2023-05-24T02:30:48.465Z,14.45
2023-05-24T02:33:37.326Z,14.44
2023-05-24T02:36:25.972Z,14.44
2023-05-24T02:39:14.813Z,14.44
2023-05-24T02:42:06.010Z,14.47
2023-05-24T02:44:54.551Z,14.49
2023-05-24T02:47:43.094Z,14.50
2023-05-24T02:50:31.841Z,14.52
2023-05-24T02:53:21.740Z,14.56
2023-05-24T02:56:11.405Z,14.58
2023-05-24T02:59:00.698Z,14.61
2023-05-24T03:01:51.004Z,14.66
2023-05-24T03:04:40.186Z,14.71
2023-05-24T03:07:30.537Z,14.76
2023-05-24T03:10:19.418Z,14.80
2023-05-24T03:13:07.969Z,14.83
2023-05-24T03:15:57.923Z,14.86
2023-05-24T03:18:46.915Z,14.90
2023-05-24T03:21:37.272Z,14.92
2023-05-24T03:24:26.474Z,14.91
2023-05-24T03:27:15.305Z,14.89
2023-05-24T03:30:06.596Z,14.87
2023-05-24T03:32:59.212Z,14.87
2023-05-24T03:35:47.994Z,14.89
2023-05-24T03:38:36.804Z,14.91
2023-05-24T03:41:25.498Z,14.93
2023-05-24T03:44:15.996Z,14.96
2023-05-24T03:47:05.067Z,15.00
2023-05-24T03:49:53.836Z,15.02
2023-05-24T03:52:42.932Z,15.04
2023-05-24T03:55:31.562Z,15.06
2023-05-24T03:58:20.409Z,15.11
2023-05-24T04:01:09.354Z,15.16
2023-05-24T04:04:01.498Z,15.18
2023-05-24T04:06:50.879Z,15.21
2023-05-24T04:09:40.413Z,15.22
2023-05-24T04:12:28.981Z,15.24
2023-05-24T04:15:18.116Z,15.29
2023-05-24T04:18:07.091Z,15.35
2023-05-24T04:20:56.512Z,15.42
2023-05-24T04:23:45.962Z,15.49
2023-05-24T04:26:35.063Z,15.51
2023-05-24T04:29:27.031Z,15.55
2023-05-24T04:32:16.367Z,15.57
2023-05-24T04:35:07.308Z,15.58
2023-05-24T04:37:56.230Z,15.61
2023-05-24T04:40:45.247Z,15.59
2023-05-24T04:43:34.928Z,15.57
2023-05-24T04:46:23.552Z,15.58
2023-05-24T04:49:12.939Z,15.57
2023-05-24T04:52:01.602Z,15.60
2023-05-24T04:54:51.316Z,15.63
2023-05-24T04:57:40.105Z,15.65
2023-05-24T05:00:29.192Z,15.67
2023-05-24T05:11:19.313Z,15.82
2023-05-24T05:14:09.921Z,15.90
2023-05-24T05:16:59.113Z,15.98
2023-05-24T05:19:48.359Z,16.07
2023-05-24T05:22:37.024Z,16.09
2023-05-24T05:25:25.727Z,16.06
2023-05-24T05:28:14.338Z,16.08
2023-05-24T05:31:03.405Z,16.09
2023-05-24T05:33:52.003Z,16.07
2023-05-24T05:36:41.136Z,16.12
2023-05-24T05:39:31.886Z,16.17
2023-05-24T05:42:20.665Z,16.21
2023-05-24T05:45:09.626Z,16.26
2023-05-24T05:47:58.300Z,16.42
2023-05-24T05:50:47.032Z,16.52
2023-05-24T05:53:35.626Z,16.60
2023-05-24T09:05:06.391Z,14.37
2023-05-24T09:07:57.040Z,14.55
2023-05-24T09:10:54.798Z,14.53
2023-05-24T09:13:48.448Z,14.51
2023-05-24T09:16:37.442Z,14.48
2023-05-24T09:19:28.014Z,14.37
2023-05-24T09:22:23.334Z,14.38
2023-05-24T09:25:14.911Z,14.50
2023-05-24T09:28:08.514Z,14.68
2023-05-24T09:30:59.106Z,14.90
2023-05-24T09:33:49.083Z,15.06
2023-05-24T09:36:41.970Z,15.12
2023-05-24T09:39:32.097Z,15.37
2023-05-24T09:42:24.496Z,15.65
2023-05-24T09:45:13.108Z,15.81
2023-05-24T09:48:03.992Z,15.89
2023-05-24T09:51:06.260Z,15.88
2023-05-24T09:54:00.814Z,15.87
2023-05-24T09:56:49.512Z,16.00
2023-05-24T09:59:40.158Z,16.07
2023-05-24T10:02:35.470Z,16.09
2023-05-24T10:05:30.444Z,16.15
2023-05-24T10:08:20.606Z,16.28
2023-05-24T10:11:09.676Z,16.39
2023-05-24T10:13:59.124Z,16.57
2023-05-24T10:16:48.412Z,16.63
2023-05-24T10:19:38.189Z,16.74
2023-05-24T10:22:28.108Z,16.96
2023-05-24T10:25:27.743Z,17.14
2023-05-24T10:28:17.227Z,17.16
2023-05-24T10:31:12.536Z,17.21
2023-05-24T10:34:07.975Z,17.40
2023-05-24T10:36:59.154Z,17.49
2023-05-24T10:39:47.823Z,17.54
2023-05-24T10:42:36.504Z,17.40
2023-05-24T10:45:25.068Z,17.20
2023-05-24T10:48:13.893Z,17.12
2023-05-24T10:51:36.668Z,17.12
2023-05-24T10:54:27.349Z,17.02
2023-05-24T10:57:24.517Z,16.99
2023-05-24T11:03:23.756Z,17.11
2023-05-24T11:06:12.415Z,17.22
2023-05-24T11:09:01.104Z,17.19
2023-05-24T11:11:55.793Z,17.11
2023-05-24T11:14:52.732Z,17.08
2023-05-24T11:18:09.578Z,17.02
2023-05-24T11:21:03.459Z,16.86
2023-05-24T11:23:52.097Z,16.76
2023-05-24T11:26:41.281Z,16.77
2023-05-24T11:29:30.672Z,16.81
2023-05-24T11:41:12.325Z,16.65
2023-05-24T11:44:01.265Z,16.60
2023-05-24T11:46:50.151Z,16.60
2023-05-24T12:01:27.553Z,16.81
2023-05-24T12:04:16.695Z,16.76
2023-05-24T12:07:10.948Z,16.78
2023-05-24T12:10:00.215Z,16.62
2023-05-24T12:12:49.077Z,16.49
2023-05-24T12:15:38.198Z,16.49
2023-05-24T12:18:27.367Z,16.50
2023-05-24T12:21:16.247Z,16.46
2023-05-24T12:24:16.564Z,16.44
2023-05-24T12:27:07.993Z,16.48
2023-05-24T12:30:07.144Z,16.45
2023-05-24T12:32:57.305Z,16.42
2023-05-24T12:35:47.361Z,16.37
2023-05-24T12:38:36.197Z,16.34
2023-05-24T12:41:25.597Z,16.33
2023-05-24T12:44:14.428Z,16.39
2023-05-24T12:47:05.285Z,16.53
2023-05-24T12:49:54.199Z,16.64
2023-05-24T12:52:44.910Z,16.74
2023-05-24T12:55:33.777Z,16.75
2023-05-24T12:58:22.699Z,16.75
2023-05-24T13:01:12.513Z,16.74
2023-05-24T13:04:01.418Z,16.81
2023-05-24T13:06:50.378Z,16.78
2023-05-24T13:09:39.427Z,16.66
2023-05-24T13:12:28.229Z,16.55
2023-05-24T13:15:19.439Z,16.40
2023-05-24T13:18:08.960Z,16.28
2023-05-24T13:21:00.706Z,16.24
2023-05-24T13:23:49.662Z,16.20
2023-05-24T13:26:39.086Z,16.20
2023-05-24T13:29:39.575Z,16.19
2023-05-24T13:32:31.963Z,16.19
2023-05-24T13:35:20.597Z,16.24
2023-05-24T13:38:09.176Z,16.16
2023-05-24T13:40:57.912Z,16.13
2023-05-24T13:43:46.979Z,16.26
2023-05-24T13:46:36.661Z,16.39
2023-05-24T13:49:25.439Z,16.50
2023-05-24T13:52:14.082Z,16.49
2023-05-24T13:55:06.250Z,16.41
2023-05-24T13:57:57.024Z,16.28
2023-05-24T14:00:45.704Z,16.20
2023-05-24T14:03:34.573Z,16.16
2023-05-24T14:06:23.194Z,16.11
2023-05-24T14:09:11.753Z,16.10
2023-05-24T14:12:02.348Z,16.01
2023-05-24T14:17:42.358Z,16.04
2023-05-24T14:20:33.225Z,16.08
2023-05-24T14:23:22.105Z,16.10
2023-05-24T14:26:10.677Z,16.02
2023-05-24T14:28:59.277Z,15.93
2023-05-24T14:31:47.869Z,15.92
2023-05-24T14:34:36.755Z,15.95
2023-05-24T14:37:25.445Z,16.04
2023-05-24T14:40:15.423Z,16.10
2023-05-24T14:43:10.674Z,16.20
2023-05-24T14:45:59.894Z,16.19
2023-05-24T14:48:48.581Z,16.14
2023-05-24T14:51:38.320Z,16.12
2023-05-24T14:54:27.464Z,16.09
2023-05-24T14:57:16.625Z,15.94
2023-05-24T15:00:06.472Z,15.76
2023-05-24T15:02:55.443Z,15.63
2023-05-24T15:05:44.544Z,15.70
2023-05-24T15:08:35.317Z,15.80
2023-05-24T15:11:23.879Z,15.92
2023-05-24T15:14:12.448Z,16.01
2023-05-24T15:17:01.019Z,16.05
2023-05-24T15:19:49.717Z,16.07
2023-05-24T15:22:38.748Z,16.14
2023-05-24T15:25:27.682Z,16.17
2023-05-24T15:28:18.420Z,16.11
2023-05-24T15:31:07.417Z,16.05
2023-05-24T15:33:56.441Z,15.99
2023-05-24T15:36:45.882Z,15.93
2023-05-24T15:39:34.511Z,15.81
2023-05-24T15:42:24.747Z,15.72
2023-05-24T15:45:13.456Z,15.61
2023-05-24T15:48:05.842Z,15.50
2023-05-24T15:51:42.755Z,15.50
2023-05-24T15:54:03.622Z,15.51
2023-05-24T15:56:54.414Z,15.46
2023-05-24T15:59:43.181Z,15.37
2023-05-24T16:02:31.988Z,15.32
2023-05-24T16:05:22.722Z,15.31
2023-05-24T16:08:11.690Z,15.23
2023-05-24T16:11:00.585Z,15.12
2023-05-24T16:13:50.416Z,14.95
2023-05-24T16:16:39.367Z,14.89
2023-05-24T16:19:28.335Z,14.87
2023-05-24T16:22:17.442Z,14.82
2023-05-24T16:25:06.945Z,14.74
2023-05-24T16:27:56.528Z,14.75
2023-05-24T16:30:45.727Z,14.81
2023-05-24T16:33:34.754Z,14.79
2023-05-24T16:36:24.087Z,14.69
2023-05-24T16:39:13.548Z,14.60
2023-05-24T16:42:03.811Z,14.51
2023-05-24T16:44:52.700Z,14.44
2023-05-24T16:47:41.911Z,14.37
2023-05-24T16:50:31.059Z,14.30
2023-05-24T16:53:23.035Z,14.30
2023-05-24T16:56:12.234Z,14.25
2023-05-24T16:59:01.096Z,14.12
2023-05-24T17:01:51.761Z,14.06
2023-05-24T17:04:40.601Z,13.98
2023-05-24T17:07:29.216Z,13.92
2023-05-24T17:10:18.041Z,13.84
2023-05-24T17:13:06.531Z,13.80
2023-05-24T17:15:56.576Z,13.75
2023-05-24T17:18:45.334Z,13.66
2023-05-24T17:21:33.957Z,13.64
2023-05-24T17:24:25.290Z,13.66
2023-05-24T17:27:13.862Z,13.68
2023-05-24T17:30:02.408Z,13.70
2023-05-24T17:32:51.060Z,13.67
2023-05-24T17:35:41.284Z,13.66
2023-05-24T17:38:33.314Z,13.59
2023-05-24T17:41:21.948Z,13.55
2023-05-24T17:44:11.205Z,13.53
2023-05-24T17:46:59.892Z,13.56
2023-05-24T17:49:48.460Z,13.58
2023-05-24T17:52:37.198Z,13.54
2023-05-24T17:55:26.898Z,13.49
2023-05-24T17:58:15.600Z,13.44
2023-05-24T18:01:06.101Z,13.43
2023-05-24T18:03:54.985Z,13.44
2023-05-24T18:06:43.940Z,13.45
2023-05-24T18:09:32.878Z,13.47
2023-05-24T18:12:24.938Z,13.44
2023-05-24T18:15:13.837Z,13.39
2023-05-24T18:18:03.281Z,13.36
2023-05-24T18:20:52.700Z,13.35
2023-05-24T18:23:42.554Z,13.29
2023-05-24T18:26:31.163Z,13.28
2023-05-24T18:29:20.295Z,13.30
2023-05-24T18:32:09.152Z,13.27
2023-05-24T18:34:57.803Z,13.27
2023-05-24T18:37:47.151Z,13.23
2023-05-24T18:40:36.455Z,13.19
2023-05-24T18:43:25.041Z,13.16
2023-05-24T18:46:15.110Z,13.16
2023-05-24T18:49:04.097Z,13.16
2023-05-24T18:51:52.638Z,13.13
2023-05-24T18:54:41.125Z,13.07
2023-05-24T18:57:31.334Z,13.04
2023-05-24T19:00:22.778Z,13.01
2023-05-24T19:03:12.235Z,12.96
2023-05-24T19:06:00.898Z,12.92
2023-05-24T19:08:49.486Z,12.92
2023-05-24T19:11:38.055Z,12.90
2023-05-24T19:14:26.641Z,12.89
2023-05-24T19:17:15.185Z,12.89
2023-05-24T19:20:04.635Z,12.92
2023-05-24T19:22:53.756Z,12.94
2023-05-24T19:25:44.098Z,12.94
2023-05-24T19:28:37.716Z,12.92
2023-05-24T19:31:26.981Z,12.88
2023-05-24T19:34:15.815Z,12.83
2023-05-24T19:37:04.680Z,12.82
2023-05-24T19:39:53.216Z,12.81
2023-05-24T19:42:41.976Z,12.82
2023-05-24T19:45:31.174Z,12.84
2023-05-24T19:48:20.494Z,12.85
2023-05-24T19:51:09.263Z,12.84
2023-05-24T19:53:57.824Z,12.86
2023-05-24T19:56:50.178Z,12.87
2023-05-24T19:59:38.722Z,12.85
2023-05-24T20:02:27.450Z,12.83
2023-05-24T20:05:17.351Z,12.85
2023-05-24T20:08:07.032Z,12.84
2023-05-24T20:10:55.772Z,12.82
2023-05-24T20:13:44.475Z,12.81
2023-05-24T20:16:33.418Z,12.79
2023-05-24T20:19:22.436Z,12.78
2023-05-24T20:22:11.556Z,12.81
2023-05-24T20:25:00.160Z,12.84
2023-05-24T20:27:48.894Z,12.83
2023-05-24T20:30:37.544Z,12.82
2023-05-24T20:33:26.288Z,12.82
2023-05-24T20:36:15.523Z,12.81
2023-05-24T20:39:04.330Z,12.75
2023-05-24T20:41:53.384Z,12.71
2023-05-24T20:44:41.912Z,12.62
2023-05-24T20:47:30.583Z,12.57
2023-05-24T20:50:19.164Z,12.58
2023-05-24T20:53:07.696Z,12.60
2023-05-24T20:55:56.741Z,12.58
2023-05-24T20:58:46.226Z,12.59
2023-05-24T21:01:34.723Z,12.58
2023-05-24T21:04:23.402Z,12.56
2023-05-24T21:07:11.976Z,12.53
2023-05-24T21:10:00.568Z,12.53
2023-05-24T21:12:49.231Z,12.53
2023-05-24T21:15:37.916Z,12.55
2023-05-24T21:18:26.446Z,12.54
2023-05-24T21:21:15.056Z,12.55
2023-05-24T21:24:03.710Z,12.56
2023-05-24T21:26:52.241Z,12.55
2023-05-24T21:29:41.896Z,12.56
2023-05-24T21:32:30.510Z,12.54
2023-05-24T21:35:19.053Z,12.53
2023-05-24T21:38:07.688Z,12.51
2023-05-24T21:40:56.497Z,12.46
2023-05-24T21:43:45.187Z,12.46
2023-05-24T21:46:34.241Z,12.49
2023-05-24T21:49:23.123Z,12.53
2023-05-24T21:52:12.080Z,12.54
2023-05-24T21:55:00.893Z,12.50
2023-05-24T21:57:49.659Z,12.49
2023-05-24T22:00:38.553Z,12.46
2023-05-24T22:03:27.124Z,12.46
2023-05-24T22:06:15.881Z,12.48
2023-05-24T22:09:04.472Z,12.52
2023-05-24T22:11:53.256Z,12.54
2023-05-24T22:14:41.971Z,12.57
2023-05-24T22:17:32.926Z,12.59
2023-05-24T22:20:22.459Z,12.57
2023-05-24T22:23:12.086Z,12.55
2023-05-24T22:26:00.939Z,12.55
2023-05-24T22:29:00.761Z,12.53
2023-05-24T22:31:49.466Z,12.52
2023-05-24T22:34:38.090Z,12.54
2023-05-24T22:37:26.602Z,12.57
2023-05-24T22:40:15.199Z,12.56
2023-05-24T22:43:03.708Z,12.53
2023-05-24T22:45:52.779Z,12.51
2023-05-24T22:48:41.558Z,12.51
2023-05-24T22:51:30.145Z,12.47
2023-05-24T22:54:19.149Z,12.46
2023-05-24T22:57:08.089Z,12.47
2023-05-24T22:59:56.737Z,12.47
2023-05-24T23:02:46.916Z,12.47
2023-05-24T23:05:35.892Z,12.47
2023-05-24T23:08:25.675Z,12.48
2023-05-24T23:11:17.239Z,12.45
2023-05-24T23:14:11.331Z,12.39
2023-05-24T23:17:02.711Z,12.35
2023-05-24T23:19:51.578Z,12.34
2023-05-24T23:22:40.402Z,12.34
2023-05-24T23:25:29.225Z,12.34
2023-05-24T23:28:17.892Z,12.38
2023-05-24T23:31:06.513Z,12.40
2023-05-24T23:33:55.058Z,12.40
2023-05-24T23:36:43.624Z,12.37
2023-05-24T23:39:32.213Z,12.34
2023-05-24T23:42:21.046Z,12.31
2023-05-24T23:45:09.913Z,12.29
2023-05-24T23:47:59.198Z,12.30
2023-05-24T23:50:53.987Z,12.30
2023-05-24T23:53:43.424Z,12.32
2023-05-24T23:56:32.061Z,12.34
2023-05-24T23:59:20.884Z,12.34
